Time;durP1;ratioP1;P1;durP2;ratioP2;P2;SDS_P1;SDS_P2;PMS_P1;PMS_P2;Temp;Humidity;BMP_temperature;BMP_pressure;BME280_temperature;BME280_humidity;BME280_pressure;Samples;Min_cycle;Max_cycle;Signal;HPM_P1;HPM_P2
2021/12/27 00:01:25;;;;;;;18.02;16.30;;;7.40;99.90;;;;;;5088871;28;20227;-81
2021/12/27 00:03:56;;;;;;;15.32;13.82;;;7.50;99.90;;;;;;5075493;28;20196;-80
2021/12/27 00:06:23;;;;;;;14.27;12.88;;;7.60;99.90;;;;;;5083498;28;20230;-80
2021/12/27 00:08:51;;;;;;;16.98;15.35;;;7.60;99.90;;;;;;5080964;28;20207;-80
2021/12/27 00:11:19;;;;;;;15.55;14.13;;;7.60;99.90;;;;;;5090160;28;20196;-81
2021/12/27 00:13:46;;;;;;;16.10;14.50;;;7.60;99.90;;;;;;5080732;28;20762;-81
2021/12/27 00:16:13;;;;;;;15.70;14.15;;;7.70;99.90;;;;;;5077697;28;20868;-80
2021/12/27 00:18:40;;;;;;;17.35;15.52;;;7.70;99.90;;;;;;5077723;28;20196;-80
2021/12/27 00:21:08;;;;;;;21.63;18.30;;;7.70;99.90;;;;;;5077035;28;20571;-81
2021/12/27 00:23:35;;;;;;;20.33;17.08;;;7.70;99.90;;;;;;5080431;28;20204;-80
2021/12/27 00:26:02;;;;;;;17.50;15.68;;;7.60;99.90;;;;;;5083975;28;20216;-80
2021/12/27 00:28:30;;;;;;;20.55;18.17;;;7.60;99.90;;;;;;5079261;28;20279;-80
2021/12/27 00:30:57;;;;;;;20.23;18.02;;;7.50;99.90;;;;;;5075998;28;20192;-81
2021/12/27 00:33:25;;;;;;;20.23;17.92;;;7.50;99.90;;;;;;5083248;28;20283;-80
2021/12/27 00:35:52;;;;;;;19.60;17.13;;;7.50;99.90;;;;;;5084387;28;20547;-80
2021/12/27 00:38:20;;;;;;;15.05;13.55;;;7.50;99.90;;;;;;5073999;28;20544;-80
2021/12/27 00:40:47;;;;;;;18.65;16.77;;;7.50;99.90;;;;;;5088706;28;20313;-80
2021/12/27 00:43:16;;;;;;;20.17;17.40;;;7.50;99.90;;;;;;5079840;28;20834;-80
2021/12/27 00:45:43;;;;;;;20.58;18.25;;;7.50;99.90;;;;;;5084934;28;20315;-80
2021/12/27 00:48:10;;;;;;;16.30;14.77;;;7.60;99.90;;;;;;5082096;28;20207;-80
2021/12/27 00:50:37;;;;;;;15.85;14.25;;;7.60;99.90;;;;;;5077371;28;20266;-80
2021/12/27 00:53:04;;;;;;;18.73;16.85;;;7.60;99.90;;;;;;5074368;28;20196;-80
2021/12/27 00:55:32;;;;;;;15.60;14.07;;;7.60;99.90;;;;;;5081138;28;20266;-80
2021/12/27 00:57:59;;;;;;;17.63;15.85;;;7.60;99.90;;;;;;5077295;28;20192;-80
2021/12/27 01:00:27;;;;;;;16.98;15.23;;;7.60;99.90;;;;;;5073975;28;20198;-80
2021/12/27 01:02:54;;;;;;;16.60;14.93;;;7.60;99.90;;;;;;5076983;28;20321;-80
2021/12/27 01:05:22;;;;;;;19.05;16.98;;;7.60;99.90;;;;;;5090109;28;20230;-80
2021/12/27 01:07:49;;;;;;;17.38;15.63;;;7.60;99.90;;;;;;5081924;28;20193;-80
2021/12/27 01:10:38;;;;;;;17.15;15.32;;;7.50;99.90;;;;;;5074943;28;20733;-80
2021/12/27 01:13:19;;;;;;;18.60;16.75;;;7.50;99.90;;;;;;5084584;28;20200;-80
2021/12/27 01:15:49;;;;;;;19.10;17.02;;;7.50;99.90;;;;;;5075580;28;20308;-80
2021/12/27 01:18:17;;;;;;;20.27;17.70;;;7.40;99.90;;;;;;5082652;28;20237;-80
2021/12/27 01:20:44;;;;;;;18.27;16.48;;;7.40;99.90;;;;;;5074631;28;20635;-80
2021/12/27 01:23:12;;;;;;;16.27;14.57;;;7.50;99.90;;;;;;5079982;28;20195;-79
2021/12/27 01:25:39;;;;;;;17.58;15.88;;;7.50;99.90;;;;;;5073321;28;20589;-80
2021/12/27 01:28:08;;;;;;;18.13;16.40;;;7.50;99.90;;;;;;5072814;28;20239;-80
2021/12/27 01:30:38;;;;;;;20.10;17.67;;;7.50;99.90;;;;;;5077388;28;20198;-80
2021/12/27 01:33:08;;;;;;;21.42;18.58;;;7.50;99.90;;;;;;5089972;28;20389;-80
2021/12/27 01:35:35;;;;;;;17.08;15.45;;;7.40;99.90;;;;;;5083703;28;20216;-80
2021/12/27 01:38:02;;;;;;;17.88;16.20;;;7.40;99.90;;;;;;5079029;28;20188;-80
2021/12/27 01:40:30;;;;;;;19.95;17.85;;;7.40;99.90;;;;;;5085322;28;20199;-80
2021/12/27 01:43:02;;;;;;;17.10;15.40;;;7.40;99.90;;;;;;5074722;28;20661;-80
2021/12/27 01:45:30;;;;;;;17.70;15.90;;;7.40;99.90;;;;;;5076256;28;20238;-80
2021/12/27 01:47:57;;;;;;;17.70;15.73;;;7.30;99.90;;;;;;5079896;28;20202;-81
2021/12/27 01:50:25;;;;;;;21.80;17.63;;;7.20;99.90;;;;;;5079389;28;20196;-80
2021/12/27 01:52:52;;;;;;;18.95;15.93;;;7.30;99.90;;;;;;5083075;28;20196;-80
2021/12/27 01:55:20;;;;;;;19.55;17.45;;;7.20;99.90;;;;;;5087136;28;20208;-80
2021/12/27 01:57:47;;;;;;;20.92;17.33;;;7.20;99.90;;;;;;5084706;28;20200;-80
2021/12/27 02:00:15;;;;;;;18.85;16.92;;;7.20;99.90;;;;;;5077151;28;20275;-80
2021/12/27 02:02:45;;;;;;;18.55;16.55;;;7.20;99.90;;;;;;5099766;28;20234;-80
2021/12/27 02:05:12;;;;;;;19.23;17.27;;;7.20;99.90;;;;;;5083723;28;20270;-81
2021/12/27 02:07:39;;;;;;;18.27;15.85;;;7.20;99.90;;;;;;5092559;28;20211;-80
2021/12/27 02:10:07;;;;;;;18.77;16.50;;;7.20;99.90;;;;;;5094999;28;20222;-80
2021/12/27 02:12:35;;;;;;;18.88;16.13;;;7.20;99.90;;;;;;5085621;28;20619;-81
2021/12/27 02:15:07;;;;;;;18.40;16.50;;;7.20;99.90;;;;;;5095613;28;20221;-81
2021/12/27 02:17:35;;;;;;;18.10;16.23;;;7.20;99.90;;;;;;5108571;28;20260;-81
2021/12/27 02:20:05;;;;;;;18.58;16.58;;;7.20;99.90;;;;;;5101520;28;20208;-80
2021/12/27 02:22:35;;;;;;;21.08;17.60;;;7.20;99.90;;;;;;5105301;28;20183;-80
2021/12/27 02:25:05;;;;;;;18.67;16.60;;;7.20;99.90;;;;;;5106552;28;20212;-80
2021/12/27 02:27:33;;;;;;;18.55;16.58;;;7.20;99.90;;;;;;5086448;28;20224;-80
2021/12/27 02:30:00;;;;;;;17.13;15.30;;;7.20;99.90;;;;;;5083895;28;20670;-80
2021/12/27 02:32:27;;;;;;;16.60;14.90;;;7.20;99.90;;;;;;5070913;28;20200;-81
2021/12/27 02:34:54;;;;;;;18.85;16.25;;;7.20;99.90;;;;;;5074045;28;20212;-81
2021/12/27 02:37:22;;;;;;;15.65;14.05;;;7.20;99.90;;;;;;5081196;28;20635;-80
2021/12/27 02:39:50;;;;;;;16.08;14.40;;;7.20;99.90;;;;;;5071133;28;20193;-80
2021/12/27 02:42:18;;;;;;;18.75;15.77;;;7.30;99.90;;;;;;5079014;28;20567;-80
2021/12/27 02:44:45;;;;;;;15.95;14.38;;;7.30;99.90;;;;;;5073121;28;20303;-80
2021/12/27 02:47:14;;;;;;;18.75;16.52;;;7.30;99.90;;;;;;5073702;28;20216;-81
2021/12/27 02:49:41;;;;;;;15.48;13.85;;;7.30;99.90;;;;;;5084711;28;20188;-80
2021/12/27 02:52:09;;;;;;;15.10;13.60;;;7.30;99.90;;;;;;5078955;28;20231;-81
2021/12/27 02:54:41;;;;;;;17.30;14.30;;;7.40;99.90;;;;;;5075167;28;20756;-80
2021/12/27 02:57:10;;;;;;;15.02;13.50;;;7.30;99.90;;;;;;5090860;28;20192;-81
2021/12/27 02:59:37;;;;;;;15.70;13.25;;;7.30;99.90;;;;;;5083907;28;20647;-81
2021/12/27 03:02:04;;;;;;;17.45;14.57;;;7.30;99.90;;;;;;5081970;28;20275;-80
2021/12/27 03:04:36;;;;;;;18.77;16.75;;;7.40;99.90;;;;;;5088041;28;20222;-80
2021/12/27 03:07:04;;;;;;;16.08;14.38;;;7.40;99.90;;;;;;5085788;28;20710;-80
2021/12/27 03:09:31;;;;;;;16.27;14.00;;;7.40;99.90;;;;;;5075633;28;20284;-81
2021/12/27 03:12:00;;;;;;;14.02;12.73;;;7.40;99.90;;;;;;5074486;28;20198;-80
2021/12/27 03:14:27;;;;;;;15.43;13.82;;;7.40;99.90;;;;;;5077858;28;20227;-80
2021/12/27 03:16:54;;;;;;;14.35;12.85;;;7.40;99.90;;;;;;5083667;28;20192;-81
2021/12/27 03:19:21;;;;;;;15.38;13.77;;;7.40;99.90;;;;;;5079040;28;20250;-81
2021/12/27 03:21:48;;;;;;;14.45;13.05;;;7.50;99.90;;;;;;5082908;28;20665;-80
2021/12/27 03:24:15;;;;;;;14.30;12.90;;;7.40;99.90;;;;;;5079970;28;20574;-80
2021/12/27 03:26:42;;;;;;;16.30;13.07;;;7.40;99.90;;;;;;5074765;28;20314;-80
2021/12/27 03:29:10;;;;;;;15.60;13.55;;;7.40;99.90;;;;;;5080354;28;20282;-80
2021/12/27 03:31:37;;;;;;;14.25;12.55;;;7.40;99.90;;;;;;5075664;28;20640;-80
2021/12/27 03:34:05;;;;;;;14.32;12.82;;;7.40;99.90;;;;;;5081053;28;20207;-80
2021/12/27 03:36:39;;;;;;;13.27;11.90;;;7.40;99.90;;;;;;5092535;28;20198;-80
2021/12/27 03:39:09;;;;;;;13.48;12.13;;;7.40;99.90;;;;;;5074043;28;20570;-80
2021/12/27 03:41:38;;;;;;;14.88;12.15;;;7.40;99.90;;;;;;5072547;28;20235;-80
2021/12/27 03:44:05;;;;;;;13.25;11.85;;;7.40;99.90;;;;;;5072921;28;20676;-81
2021/12/27 03:46:34;;;;;;;14.40;12.32;;;7.50;99.90;;;;;;5073620;28;20586;-81
2021/12/27 03:49:01;;;;;;;12.00;10.68;;;7.40;99.90;;;;;;5091574;28;20290;-80
2021/12/27 03:51:28;;;;;;;13.10;11.35;;;7.50;99.90;;;;;;5087101;28;20287;-80
2021/12/27 03:53:55;;;;;;;12.10;10.90;;;7.40;99.90;;;;;;5083256;28;20258;-80
2021/12/27 03:56:23;;;;;;;14.23;12.00;;;7.50;99.90;;;;;;5087198;28;20232;-80
2021/12/27 03:58:56;;;;;;;12.55;11.05;;;7.50;99.90;;;;;;5082004;28;20241;-80
2021/12/27 04:01:26;;;;;;;13.02;11.27;;;7.50;99.90;;;;;;5082796;28;20667;-81
2021/12/27 04:03:56;;;;;;;13.05;11.23;;;7.40;99.90;;;;;;5076733;28;20645;-80
2021/12/27 04:06:26;;;;;;;13.65;12.30;;;7.30;99.90;;;;;;5075102;28;20695;-80
2021/12/27 04:08:53;;;;;;;13.60;12.20;;;7.30;99.90;;;;;;5073588;28;20647;-80
2021/12/27 04:11:20;;;;;;;12.30;11.00;;;7.30;99.90;;;;;;5078492;28;20188;-80
2021/12/27 04:13:47;;;;;;;12.90;11.73;;;7.20;99.90;;;;;;5086615;28;20251;-81
2021/12/27 04:16:14;;;;;;;13.35;12.10;;;7.20;99.90;;;;;;5075888;28;20204;-80
2021/12/27 04:18:41;;;;;;;13.55;12.15;;;7.20;99.90;;;;;;5082238;28;20197;-80
2021/12/27 04:21:10;;;;;;;12.27;11.05;;;7.10;99.90;;;;;;5084837;28;20247;-80
2021/12/27 04:23:36;;;;;;;11.70;10.50;;;7.20;99.90;;;;;;5090679;28;20222;-81
2021/12/27 04:26:04;;;;;;;11.98;10.68;;;7.30;99.90;;;;;;5090566;28;20291;-81
2021/12/27 04:28:31;;;;;;;10.73;9.73;;;7.30;99.90;;;;;;5075258;28;20355;-80
2021/12/27 04:30:58;;;;;;;11.23;10.13;;;7.30;99.90;;;;;;5076305;28;20690;-80
2021/12/27 04:33:25;;;;;;;10.77;9.77;;;7.40;99.90;;;;;;5078749;28;20286;-80
2021/12/27 04:35:52;;;;;;;10.07;9.13;;;7.40;99.90;;;;;;5074793;28;20660;-81
2021/12/27 04:38:20;;;;;;;9.70;8.90;;;7.50;99.90;;;;;;5080750;28;20275;-80
2021/12/27 04:40:49;;;;;;;9.65;8.75;;;7.50;99.90;;;;;;5081622;28;20681;-80
2021/12/27 04:43:19;;;;;;;10.30;9.40;;;7.60;99.90;;;;;;5080304;28;20195;-80
2021/12/27 04:45:47;;;;;;;11.43;10.32;;;7.60;99.90;;;;;;5085253;28;20552;-80
2021/12/27 04:48:15;;;;;;;9.70;8.80;;;7.60;99.90;;;;;;5079227;28;20311;-80
2021/12/27 04:50:42;;;;;;;10.18;9.27;;;7.60;99.90;;;;;;5077513;28;20284;-80
2021/12/27 04:53:09;;;;;;;11.32;10.23;;;7.50;99.90;;;;;;5080848;28;20300;-80
2021/12/27 04:55:38;;;;;;;10.15;9.30;;;7.50;99.90;;;;;;5073513;28;20279;-80
2021/12/27 04:58:08;;;;;;;11.00;9.90;;;7.50;99.90;;;;;;5076364;28;20290;-80
2021/12/27 05:00:35;;;;;;;9.90;8.95;;;7.50;99.90;;;;;;5071016;28;20659;-80
2021/12/27 05:03:02;;;;;;;11.35;10.25;;;7.50;99.90;;;;;;5072172;28;20199;-80
2021/12/27 05:05:30;;;;;;;11.18;10.07;;;7.40;99.90;;;;;;5073031;28;20311;-80
2021/12/27 05:07:58;;;;;;;10.45;9.55;;;7.30;99.90;;;;;;5073518;28;20293;-80
2021/12/27 05:10:25;;;;;;;9.25;8.45;;;7.40;99.90;;;;;;5080262;28;20196;-80
2021/12/27 05:12:54;;;;;;;9.02;8.25;;;7.30;99.90;;;;;;5072921;28;20205;-81
2021/12/27 05:15:21;;;;;;;9.90;9.10;;;7.30;99.90;;;;;;5086005;28;20203;-81
2021/12/27 05:17:48;;;;;;;9.55;8.65;;;7.30;99.90;;;;;;5075796;28;20288;-81
2021/12/27 05:20:15;;;;;;;10.55;9.50;;;7.30;99.90;;;;;;5072707;28;20603;-81
2021/12/27 05:22:43;;;;;;;9.98;9.05;;;7.30;99.90;;;;;;5082312;28;20196;-81
2021/12/27 05:25:12;;;;;;;9.30;8.50;;;7.30;99.90;;;;;;5089976;28;20215;-80
2021/12/27 05:27:40;;;;;;;9.70;8.77;;;7.30;99.90;;;;;;5085366;28;20229;-80
2021/12/27 05:30:10;;;;;;;9.55;8.70;;;7.30;99.90;;;;;;5087297;28;20196;-80
2021/12/27 05:32:38;;;;;;;9.43;8.63;;;7.30;99.90;;;;;;5077985;28;20666;-80
2021/12/27 05:35:06;;;;;;;8.73;7.93;;;7.30;99.90;;;;;;5083467;28;20227;-81
2021/12/27 05:37:33;;;;;;;9.60;8.75;;;7.30;99.90;;;;;;5081106;28;20207;-80
2021/12/27 05:40:05;;;;;;;8.50;7.80;;;7.40;99.90;;;;;;5074427;28;20196;-80
2021/12/27 05:42:32;;;;;;;8.95;8.15;;;7.40;99.90;;;;;;5078704;28;20188;-80
2021/12/27 05:44:59;;;;;;;9.23;8.32;;;7.30;99.90;;;;;;5081159;28;20593;-80
2021/12/27 05:47:27;;;;;;;8.13;7.43;;;7.40;99.90;;;;;;5079030;28;20804;-80
2021/12/27 05:49:55;;;;;;;8.38;7.57;;;7.40;99.90;;;;;;5069955;28;20203;-83
2021/12/27 05:52:22;;;;;;;7.78;7.18;;;7.40;99.90;;;;;;5071563;28;20795;-79
2021/12/27 05:54:48;;;;;;;8.60;7.85;;;7.40;99.90;;;;;;5070629;28;20311;-80
2021/12/27 05:57:16;;;;;;;8.00;7.30;;;7.40;99.90;;;;;;5070975;28;20224;-79
2021/12/27 05:59:43;;;;;;;8.40;7.60;;;7.40;99.90;;;;;;5078513;28;20647;-80
2021/12/27 06:02:09;;;;;;;7.22;6.63;;;7.40;99.90;;;;;;5087476;28;20643;-80
2021/12/27 06:04:38;;;;;;;7.65;6.95;;;7.50;99.90;;;;;;5076063;28;20220;-80
2021/12/27 06:07:05;;;;;;;7.03;6.43;;;7.50;99.90;;;;;;5079035;28;20319;-80
2021/12/27 06:09:32;;;;;;;6.47;5.90;;;7.50;99.90;;;;;;5084689;28;20210;-79
2021/12/27 06:11:59;;;;;;;6.88;5.28;;;7.50;99.90;;;;;;5072965;28;20253;-80
2021/12/27 06:14:26;;;;;;;7.95;7.07;;;7.50;99.90;;;;;;5085683;28;20254;-80
2021/12/27 06:16:53;;;;;;;6.97;6.28;;;7.40;99.90;;;;;;5081176;28;20210;-80
2021/12/27 06:19:21;;;;;;;7.15;6.53;;;7.40;99.90;;;;;;5074997;28;20206;-80
2021/12/27 06:21:50;;;;;;;6.57;5.97;;;7.40;99.90;;;;;;5073090;28;20200;-80
2021/12/27 06:24:17;;;;;;;5.93;5.43;;;7.50;99.90;;;;;;5076031;28;20239;-80
2021/12/27 06:26:44;;;;;;;6.10;5.60;;;7.50;99.90;;;;;;5085712;28;20283;-79
2021/12/27 06:29:11;;;;;;;5.70;5.30;;;7.50;99.90;;;;;;5082520;28;20224;-79
2021/12/27 06:31:38;;;;;;;6.32;5.72;;;7.50;99.90;;;;;;5075879;28;20238;-80
2021/12/27 06:34:06;;;;;;;6.93;6.32;;;7.40;99.90;;;;;;5078243;28;20699;-80
2021/12/27 06:36:33;;;;;;;6.63;6.13;;;7.40;99.90;;;;;;5075165;28;20230;-79
2021/12/27 06:39:01;;;;;;;6.15;5.65;;;7.30;99.90;;;;;;5076371;28;20297;-80
2021/12/27 06:41:28;;;;;;;6.22;5.72;;;7.30;99.90;;;;;;5079671;28;20200;-78
2021/12/27 06:43:55;;;;;;;7.18;6.57;;;7.20;99.90;;;;;;5069910;28;20345;-79
2021/12/27 06:46:23;;;;;;;7.25;6.55;;;7.10;99.90;;;;;;5071490;28;20568;-80
2021/12/27 06:48:50;;;;;;;7.90;7.20;;;7.10;99.90;;;;;;5082453;28;20586;-79
2021/12/27 06:51:17;;;;;;;6.68;6.13;;;7.00;99.90;;;;;;5073077;28;20269;-79
2021/12/27 06:53:45;;;;;;;7.28;6.70;;;6.90;99.90;;;;;;5076010;28;20212;-79
2021/12/27 06:56:16;;;;;;;7.35;6.75;;;6.90;99.90;;;;;;5076341;28;20675;-80
2021/12/27 06:58:43;;;;;;;8.27;7.50;;;6.80;99.90;;;;;;5069452;28;20713;-80
2021/12/27 07:01:11;;;;;;;8.32;7.63;;;6.70;99.90;;;;;;5076453;28;20200;-80
2021/12/27 07:03:38;;;;;;;9.02;8.27;;;6.60;99.90;;;;;;5075627;28;20216;-79
2021/12/27 07:06:05;;;;;;;8.20;7.60;;;6.50;99.90;;;;;;5076702;28;20202;-79
2021/12/27 07:08:33;;;;;;;8.75;7.85;;;6.50;99.90;;;;;;5075693;28;20734;-79
2021/12/27 07:11:00;;;;;;;8.13;7.43;;;6.50;99.90;;;;;;5070251;28;20667;-79
2021/12/27 07:13:28;;;;;;;8.25;7.53;;;6.40;99.90;;;;;;5078182;28;20232;-91
2021/12/27 07:15:55;;;;;;;9.43;8.52;;;6.40;99.90;;;;;;5081171;28;20192;-79
2021/12/27 07:18:23;;;;;;;9.60;8.70;;;6.30;99.90;;;;;;5071871;28;20193;-81
2021/12/27 07:20:52;;;;;;;10.65;9.75;;;6.30;99.90;;;;;;5082820;28;20200;-81
2021/12/27 07:23:20;;;;;;;10.85;9.85;;;6.20;99.90;;;;;;5081721;28;20760;-81
2021/12/27 07:25:47;;;;;;;9.90;9.07;;;6.20;99.90;;;;;;5074634;28;20229;-84
2021/12/27 07:28:15;;;;;;;9.73;8.88;;;6.20;99.90;;;;;;5074169;28;20259;-80
2021/12/27 07:30:43;;;;;;;12.88;10.07;;;6.30;99.90;;;;;;5074595;28;20216;-83
2021/12/27 07:33:10;;;;;;;10.40;9.45;;;6.30;99.90;;;;;;5073736;28;20215;-81
2021/12/27 07:35:38;;;;;;;12.95;11.65;;;6.30;99.90;;;;;;5080826;28;20219;-79
2021/12/27 07:38:05;;;;;;;11.35;10.25;;;6.30;99.90;;;;;;5078065;28;20227;-88
2021/12/27 07:40:34;;;;;;;10.90;9.90;;;6.40;99.90;;;;;;5089342;28;20187;-87
2021/12/27 07:43:01;;;;;;;11.85;10.85;;;6.50;99.90;;;;;;5083249;28;20642;-80
2021/12/27 07:45:29;;;;;;;11.63;10.57;;;6.60;99.90;;;;;;5061183;28;20222;-81
2021/12/27 07:47:57;;;;;;;12.30;11.27;;;6.60;99.90;;;;;;5078381;28;20294;-80
2021/12/27 07:50:24;;;;;;;13.35;11.95;;;6.70;99.90;;;;;;5071292;28;20200;-80
2021/12/27 07:52:52;;;;;;;14.40;13.10;;;6.70;99.90;;;;;;5073725;28;20303;-76
2021/12/27 07:55:21;;;;;;;12.80;11.60;;;6.70;99.90;;;;;;5088597;28;20247;-80
2021/12/27 07:57:49;;;;;;;12.63;11.50;;;6.70;99.90;;;;;;5090446;28;20204;-79
2021/12/27 08:00:17;;;;;;;10.85;9.95;;;6.80;99.90;;;;;;5084762;28;20223;-81
2021/12/27 08:02:44;;;;;;;11.82;10.82;;;6.80;99.90;;;;;;5075169;28;20215;-80
2021/12/27 08:05:14;;;;;;;11.55;10.45;;;6.80;99.90;;;;;;5075239;28;20228;-83
2021/12/27 08:07:42;;;;;;;10.27;9.35;;;6.80;99.90;;;;;;5061100;28;20226;-81
2021/12/27 08:10:10;;;;;;;9.65;8.82;;;6.90;99.90;;;;;;5076302;28;20189;-80
2021/12/27 08:12:38;;;;;;;9.45;8.65;;;7.00;99.90;;;;;;5079412;28;20223;-81
2021/12/27 08:15:07;;;;;;;9.00;8.30;;;7.00;99.90;;;;;;5075160;28;20287;-80
2021/12/27 08:17:35;;;;;;;9.05;8.20;;;7.10;99.90;;;;;;5065928;28;20291;-80
2021/12/27 08:20:02;;;;;;;9.38;8.63;;;7.30;99.90;;;;;;5074291;28;20728;-80
2021/12/27 08:22:30;;;;;;;8.70;8.00;;;7.30;99.90;;;;;;5067847;28;20293;-80
2021/12/27 08:24:58;;;;;;;8.88;8.13;;;7.30;99.90;;;;;;5068457;28;22388;-80
2021/12/27 08:27:27;;;;;;;7.75;7.15;;;7.30;99.90;;;;;;5078447;28;20204;-80
2021/12/27 08:29:55;;;;;;;7.75;7.05;;;7.40;99.90;;;;;;5111915;27;20561;-79
2021/12/27 08:32:22;;;;;;;8.35;7.55;;;7.40;99.90;;;;;;5116140;27;20199;-80
2021/12/27 08:34:49;;;;;;;8.65;7.95;;;7.40;99.90;;;;;;5130348;27;20841;-78
2021/12/27 08:37:16;;;;;;;8.60;7.80;;;7.40;99.90;;;;;;5139740;27;20191;-79
2021/12/27 08:39:45;;;;;;;8.13;7.43;;;7.40;99.90;;;;;;5135664;27;20250;-80
2021/12/27 08:42:13;;;;;;;7.57;6.88;;;7.50;99.90;;;;;;5132791;27;20562;-80
2021/12/27 08:44:41;;;;;;;7.90;7.22;;;7.60;99.90;;;;;;5120314;27;20206;-79
2021/12/27 08:47:09;;;;;;;7.47;6.88;;;7.70;99.90;;;;;;5129673;27;20254;-79
2021/12/27 08:49:37;;;;;;;7.10;6.38;;;7.80;99.90;;;;;;5142490;27;20295;-79
2021/12/27 08:52:05;;;;;;;7.90;7.20;;;7.90;99.90;;;;;;5143717;27;20204;-79
2021/12/27 08:54:32;;;;;;;6.95;6.43;;;7.90;99.90;;;;;;5151396;27;20199;-78
2021/12/27 08:57:03;;;;;;;7.32;6.72;;;8.00;99.90;;;;;;5142069;27;20218;-80
2021/12/27 08:59:30;;;;;;;6.93;6.35;;;8.20;99.90;;;;;;5119273;27;20297;-84
2021/12/27 09:01:58;;;;;;;5.22;4.82;;;8.70;99.90;;;;;;5118439;27;20230;-80
2021/12/27 09:04:25;;;;;;;5.20;4.80;;;9.40;99.90;;;;;;5117222;27;20209;-79
2021/12/27 09:06:52;;;;;;;5.57;5.15;;;10.00;99.90;;;;;;5116355;27;20283;-78
2021/12/27 09:09:19;;;;;;;5.47;5.07;;;10.20;99.90;;;;;;5120628;27;20241;-80
2021/12/27 09:11:46;;;;;;;5.55;5.05;;;10.20;99.90;;;;;;5119739;27;20646;-79
2021/12/27 09:14:15;;;;;;;5.18;4.78;;;10.20;99.90;;;;;;5109425;27;20255;-80
2021/12/27 09:16:43;;;;;;;5.20;4.70;;;10.20;99.90;;;;;;5115347;27;20200;-80
2021/12/27 09:19:10;;;;;;;5.30;4.90;;;10.30;99.90;;;;;;5121136;27;20189;-79
2021/12/27 09:21:37;;;;;;;4.60;4.30;;;10.50;99.90;;;;;;5111352;27;20194;-79
2021/12/27 09:24:05;;;;;;;4.25;3.95;;;10.60;99.90;;;;;;5111701;27;20222;-79
2021/12/27 09:26:32;;;;;;;4.43;4.03;;;11.00;99.90;;;;;;5116377;27;20203;-79
2021/12/27 09:28:59;;;;;;;4.57;4.22;;;11.20;99.90;;;;;;5112299;27;20363;-80
2021/12/27 09:31:28;;;;;;;5.30;4.90;;;11.30;99.90;;;;;;5113821;27;20282;-80
2021/12/27 09:33:55;;;;;;;5.28;4.88;;;11.60;99.90;;;;;;5110403;27;20748;-79
2021/12/27 09:36:22;;;;;;;5.32;4.93;;;11.70;99.90;;;;;;5123026;27;20240;-79
2021/12/27 09:38:49;;;;;;;4.15;3.85;;;12.00;99.90;;;;;;5110298;27;20281;-79
2021/12/27 09:41:16;;;;;;;4.72;4.00;;;12.30;99.90;;;;;;5113159;27;20231;-78
2021/12/27 09:43:44;;;;;;;3.25;2.95;;;12.60;99.90;;;;;;5115808;27;20614;-79
2021/12/27 09:46:11;;;;;;;3.38;3.10;;;12.80;99.90;;;;;;5118158;27;20194;-79
2021/12/27 09:48:39;;;;;;;3.65;3.38;;;12.90;99.90;;;;;;5119223;27;20247;-79
2021/12/27 09:51:08;;;;;;;3.65;3.35;;;13.10;99.90;;;;;;5112782;27;20202;-79
2021/12/27 09:53:35;;;;;;;3.08;2.85;;;13.00;99.90;;;;;;5113190;27;20210;-79
2021/12/27 09:56:08;;;;;;;4.10;3.80;;;12.80;99.90;;;;;;5116971;27;20190;-79
2021/12/27 09:58:35;;;;;;;3.03;2.78;;;12.90;99.90;;;;;;5119934;27;20197;-79
2021/12/27 10:01:03;;;;;;;3.25;3.05;;;13.20;99.90;;;;;;5112427;27;20298;-79
2021/12/27 10:03:31;;;;;;;3.10;2.90;;;13.30;99.90;;;;;;5110845;27;20245;-79
2021/12/27 10:06:11;;;;;;;3.50;3.20;;;13.10;99.90;;;;;;5120045;27;20190;-79
2021/12/27 10:08:37;;;;;;;3.90;3.60;;;12.80;99.90;;;;;;5112222;27;20225;-80
2021/12/27 10:11:05;;;;;;;3.60;3.30;;;12.30;99.90;;;;;;5127144;27;20198;-79
2021/12/27 10:13:32;;;;;;;3.83;3.42;;;11.80;99.90;;;;;;5115653;27;20259;-79
2021/12/27 10:15:59;;;;;;;3.58;3.33;;;11.50;99.90;;;;;;5112299;27;20232;-78
2021/12/27 10:18:28;;;;;;;3.42;3.22;;;11.30;99.90;;;;;;5115034;27;20214;-79
2021/12/27 10:20:59;;;;;;;3.80;3.50;;;11.00;99.90;;;;;;5116206;27;20613;-79
2021/12/27 10:23:28;;;;;;;3.10;2.90;;;11.10;99.90;;;;;;5118594;27;20225;-78
2021/12/27 10:25:56;;;;;;;3.28;2.97;;;11.40;99.90;;;;;;5118002;27;20621;-79
2021/12/27 10:28:26;;;;;;;2.70;2.50;;;11.90;99.90;;;;;;5114043;28;20771;-79
2021/12/27 10:31:02;;;;;;;3.40;3.10;;;12.70;99.90;;;;;;5113761;27;20251;-79
2021/12/27 10:33:33;;;;;;;2.63;2.42;;;13.60;99.90;;;;;;5108982;28;20271;-79
2021/12/27 10:36:00;;;;;;;3.92;2.90;;;14.00;99.90;;;;;;5113102;28;20332;-79
2021/12/27 10:38:32;;;;;;;2.80;2.60;;;14.30;99.90;;;;;;5113532;27;20195;-80
2021/12/27 10:41:00;;;;;;;2.83;2.60;;;14.60;99.90;;;;;;5112672;28;22101;-80
2021/12/27 10:43:38;;;;;;;3.10;2.80;;;14.70;99.90;;;;;;5113564;28;20489;-79
2021/12/27 10:46:07;;;;;;;2.57;2.47;;;14.70;99.90;;;;;;5115950;28;20244;-80
2021/12/27 10:48:35;;;;;;;3.10;2.90;;;14.80;99.90;;;;;;5118574;27;20480;-79
2021/12/27 10:51:03;;;;;;;2.97;2.67;;;15.10;99.90;;;;;;5108306;27;20456;-80
2021/12/27 10:53:46;;;;;;;2.97;2.67;;;15.30;99.90;;;;;;5104702;27;20473;-80
2021/12/27 10:56:13;;;;;;;2.93;2.73;;;15.40;99.90;;;;;;5120466;27;20461;-79
2021/12/27 10:58:47;;;;;;;3.37;3.07;;;15.30;99.90;;;;;;5122464;28;20479;-80
2021/12/27 11:01:18;;;;;;;2.83;2.63;;;15.10;99.90;;;;;;5119230;27;20485;-79
2021/12/27 11:03:46;;;;;;;2.77;2.57;;;14.90;99.90;;;;;;5117033;28;20481;-80
2021/12/27 11:06:14;;;;;;;4.23;2.93;;;15.00;99.90;;;;;;5110332;28;20829;-80
2021/12/27 11:08:44;;;;;;;3.60;3.30;;;15.20;99.90;;;;;;5119089;27;20480;-80
2021/12/27 11:11:12;;;;;;;3.10;2.90;;;15.20;99.90;;;;;;5121629;27;20464;-80
2021/12/27 11:13:41;;;;;;;3.57;3.27;;;15.10;99.90;;;;;;5115231;27;20578;-81
2021/12/27 11:16:08;;;;;;;3.10;2.90;;;15.30;99.90;;;;;;5127232;27;20450;-80
2021/12/27 11:18:35;;;;;;;3.37;3.17;;;15.20;99.90;;;;;;5118998;27;21036;-80
2021/12/27 11:21:11;;;;;;;3.30;3.00;;;15.10;99.90;;;;;;5119462;27;22427;-80
2021/12/27 11:23:39;;;;;;;3.87;3.57;;;15.40;99.90;;;;;;5115520;27;20502;-80
2021/12/27 11:26:09;;;;;;;3.30;3.07;;;15.50;99.90;;;;;;5119122;27;20505;-79
2021/12/27 11:28:38;;;;;;;3.23;3.03;;;15.30;99.90;;;;;;5110878;27;20480;-80
2021/12/27 11:31:08;;;;;;;3.33;3.00;;;14.90;99.90;;;;;;5117544;27;20456;-79
2021/12/27 11:33:53;;;;;;;2.92;2.72;;;14.30;99.90;;;;;;5111996;27;20491;-79
2021/12/27 11:36:21;;;;;;;3.35;3.13;;;13.70;99.90;;;;;;5115897;27;20210;-79
2021/12/27 11:38:48;;;;;;;3.47;3.28;;;13.40;99.90;;;;;;5126889;27;21010;-81
2021/12/27 11:41:33;;;;;;;4.10;3.70;;;12.90;99.90;;;;;;5110728;27;20194;-73
2021/12/27 11:44:01;;;;;;;3.90;3.60;;;12.60;99.90;;;;;;5115986;27;20233;-74
2021/12/27 11:46:31;;;;;;;3.90;3.50;;;12.20;99.90;;;;;;5117212;27;20932;-79
2021/12/27 11:49:00;;;;;;;4.03;3.72;;;11.80;99.90;;;;;;5098768;27;20214;-79
2021/12/27 11:51:33;;;;;;;4.03;3.72;;;11.50;99.90;;;;;;5114128;27;20446;-79
2021/12/27 11:54:02;;;;;;;4.70;4.32;;;11.30;99.90;;;;;;5113824;27;20213;-79
2021/12/27 11:56:46;;;;;;;4.40;3.60;;;11.20;99.90;;;;;;5113357;27;20284;-79
2021/12/27 11:59:35;;;;;;;4.28;3.88;;;11.00;99.90;;;;;;5120398;27;20208;-80
2021/12/27 12:02:22;;;;;;;4.43;4.13;;;10.90;99.90;;;;;;5115807;27;20297;-80
2021/12/27 12:04:52;;;;;;;3.92;3.63;;;11.00;99.90;;;;;;5115456;27;20198;-79
2021/12/27 12:07:54;;;;;;;4.40;4.00;;;11.00;99.90;;;;;;5111785;27;20280;-79
2021/12/27 12:10:23;;;;;;;3.88;3.58;;;11.00;99.90;;;;;;5115222;27;20229;-79
2021/12/27 12:13:27;;;;;;;4.22;3.92;;;10.90;99.90;;;;;;5116505;27;20700;-79
2021/12/27 12:16:06;;;;;;;4.90;4.40;;;10.90;99.90;;;;;;5116732;27;20591;-79
2021/12/27 12:18:36;;;;;;;3.88;3.58;;;10.90;99.90;;;;;;5117508;27;20646;-79
2021/12/27 12:21:05;;;;;;;4.13;3.80;;;10.80;99.90;;;;;;5119761;27;20206;-79
2021/12/27 12:23:36;;;;;;;4.00;3.70;;;10.80;99.90;;;;;;5106756;27;20740;-79
2021/12/27 12:26:06;;;;;;;4.05;3.70;;;10.80;99.90;;;;;;5122548;27;20710;-78
2021/12/27 12:28:35;;;;;;;4.85;4.45;;;10.80;99.90;;;;;;5117065;27;20225;-79
2021/12/27 12:31:02;;;;;;;4.70;4.30;;;10.70;99.90;;;;;;5118861;27;20196;-79
2021/12/27 12:33:30;;;;;;;4.25;3.95;;;10.70;99.90;;;;;;5118938;27;20252;-79
2021/12/27 12:36:00;;;;;;;3.90;3.60;;;10.60;99.90;;;;;;5112278;27;20221;-79
2021/12/27 12:38:29;;;;;;;3.80;3.50;;;10.60;99.90;;;;;;5112060;27;20208;-78
2021/12/27 12:41:03;;;;;;;3.83;3.53;;;10.60;99.90;;;;;;5113205;27;20678;-78
2021/12/27 12:43:41;;;;;;;4.47;3.80;;;10.50;99.90;;;;;;5120230;27;21404;-79
2021/12/27 12:46:18;;;;;;;4.38;3.97;;;10.50;99.90;;;;;;5107276;27;20209;-78
2021/12/27 12:48:55;;;;;;;4.60;4.20;;;10.40;99.90;;;;;;5115724;27;20494;-79
2021/12/27 12:51:34;;;;;;;4.38;4.00;;;10.30;99.90;;;;;;5107875;27;20208;-79
2021/12/27 12:54:01;;;;;;;4.47;4.07;;;10.30;99.90;;;;;;5113399;27;20199;-79